Time;durP1;ratioP1;P1;durP2;ratioP2;P2;SDS_P1;SDS_P2;PMS_P1;PMS_P2;Temp;Humidity;BMP_temperature;BMP_pressure;BME280_temperature;BME280_humidity;BME280_pressure;Samples;Min_cycle;Max_cycle;Signal;HPM_P1;HPM_P2
2022/12/05 00:02:24;;;;;;;37.03;21.93;;;1.60;99.90;;;;;;5057219;28;20467;-65
2022/12/05 00:04:51;;;;;;;39.47;22.77;;;1.60;99.90;;;;;;5057453;28;20462;-65
2022/12/05 00:07:19;;;;;;;37.70;23.03;;;1.60;99.90;;;;;;5057233;28;20462;-65
2022/12/05 00:09:46;;;;;;;33.57;23.17;;;1.50;99.90;;;;;;5057389;28;20485;-65
2022/12/05 00:12:13;;;;;;;37.47;23.03;;;1.50;99.90;;;;;;5056985;28;20462;-65
2022/12/05 00:14:40;;;;;;;42.70;24.43;;;1.50;99.90;;;;;;5057068;28;20452;-65
2022/12/05 00:17:07;;;;;;;35.77;22.60;;;1.50;99.90;;;;;;5056836;28;20489;-65
2022/12/05 00:19:35;;;;;;;42.67;23.10;;;1.60;99.90;;;;;;5056516;28;20452;-65
2022/12/05 00:22:03;;;;;;;38.60;23.70;;;1.60;99.90;;;;;;5055710;28;20469;-65
2022/12/05 00:24:30;;;;;;;37.70;23.00;;;1.60;99.90;;;;;;5056290;28;20475;-65
2022/12/05 00:26:57;;;;;;;38.87;22.70;;;1.60;99.90;;;;;;5056406;28;20883;-65
2022/12/05 00:29:28;;;;;;;34.70;20.57;;;1.60;99.90;;;;;;5054753;28;20470;-65
2022/12/05 00:31:55;;;;;;;39.27;23.37;;;1.60;99.90;;;;;;5055266;28;20474;-65
2022/12/05 00:34:22;;;;;;;42.60;23.87;;;1.60;99.90;;;;;;5055518;28;20469;-64
2022/12/05 00:36:51;;;;;;;38.87;23.87;;;1.60;99.90;;;;;;5055325;28;20833;-65
2022/12/05 00:39:18;;;;;;;36.30;23.43;;;1.60;99.90;;;;;;5055892;28;20485;-64
2022/12/05 00:41:45;;;;;;;36.83;24.13;;;1.60;99.90;;;;;;5055671;28;20758;-64
2022/12/05 00:44:13;;;;;;;35.70;22.80;;;1.60;99.90;;;;;;5055566;28;20437;-65
2022/12/05 00:46:40;;;;;;;40.90;23.90;;;1.60;99.90;;;;;;5056863;28;20783;-65
2022/12/05 00:49:08;;;;;;;34.63;21.53;;;1.50;99.90;;;;;;5056974;28;20458;-65
2022/12/05 00:51:37;;;;;;;38.13;23.30;;;1.60;99.90;;;;;;5056659;28;20780;-65
2022/12/05 00:54:09;;;;;;;39.33;22.83;;;1.50;99.90;;;;;;5060175;28;20867;-65
2022/12/05 00:56:37;;;;;;;39.20;23.57;;;1.60;99.90;;;;;;5059877;28;20473;-65
2022/12/05 00:59:05;;;;;;;35.23;23.23;;;1.50;99.90;;;;;;5060149;28;20468;-65
2022/12/05 01:01:35;;;;;;;31.63;21.13;;;1.70;99.90;;;;;;5060404;28;20469;-65
2022/12/05 01:04:10;;;;;;;38.40;23.43;;;1.60;99.90;;;;;;5060057;28;20437;-65
2022/12/05 01:06:39;;;;;;;37.90;23.10;;;1.50;99.90;;;;;;5060107;28;20432;-65
2022/12/05 01:09:10;;;;;;;35.20;23.27;;;1.60;99.90;;;;;;5060553;28;20546;-65
2022/12/05 01:11:39;;;;;;;38.43;23.67;;;1.60;99.90;;;;;;5059368;28;20467;-65
2022/12/05 01:14:07;;;;;;;39.97;24.50;;;1.60;99.90;;;;;;5059911;28;20887;-65
2022/12/05 01:16:36;;;;;;;34.23;22.63;;;1.50;99.90;;;;;;5060083;28;20584;-65
2022/12/05 01:19:05;;;;;;;36.20;22.63;;;1.60;99.90;;;;;;5059802;28;20465;-65
2022/12/05 01:21:32;;;;;;;38.37;23.00;;;1.60;99.90;;;;;;5060130;28;20882;-65
2022/12/05 01:23:59;;;;;;;41.47;24.83;;;1.60;99.90;;;;;;5059199;28;20486;-65
2022/12/05 01:26:28;;;;;;;34.07;23.00;;;1.60;99.90;;;;;;5059762;28;20467;-65
2022/12/05 01:28:55;;;;;;;40.47;23.90;;;1.70;99.90;;;;;;5059512;28;20454;-65
2022/12/05 01:31:26;;;;;;;41.17;23.73;;;1.60;99.90;;;;;;5059803;28;20470;-65
2022/12/05 01:33:54;;;;;;;36.10;23.60;;;1.70;99.90;;;;;;5059390;28;20462;-65
2022/12/05 01:36:22;;;;;;;34.37;22.03;;;1.70;99.90;;;;;;5059759;28;20495;-65
2022/12/05 01:38:50;;;;;;;38.20;23.70;;;1.70;99.90;;;;;;5059762;28;20461;-65
2022/12/05 01:41:19;;;;;;;35.73;23.20;;;1.70;99.90;;;;;;5059806;28;20462;-65
2022/12/05 01:44:02;;;;;;;34.90;22.27;;;1.70;99.90;;;;;;5059032;28;20437;-65
2022/12/05 01:46:31;;;;;;;41.47;23.60;;;1.70;99.90;;;;;;5059526;28;20901;-65
2022/12/05 01:49:03;;;;;;;34.67;22.30;;;1.70;99.90;;;;;;5059331;28;20462;-65
2022/12/05 01:51:32;;;;;;;37.83;22.37;;;1.70;99.90;;;;;;5059717;28;20454;-65
2022/12/05 01:54:00;;;;;;;37.87;22.70;;;1.70;99.90;;;;;;5058978;28;20500;-65
2022/12/05 01:56:27;;;;;;;37.27;23.13;;;1.70;99.90;;;;;;5059025;28;20437;-65
2022/12/05 01:58:56;;;;;;;38.27;22.57;;;1.70;99.90;;;;;;5058723;28;20489;-65
2022/12/05 02:01:25;;;;;;;35.37;22.90;;;1.70;99.90;;;;;;5059353;28;20440;-65
2022/12/05 02:03:55;;;;;;;41.30;23.60;;;1.70;99.90;;;;;;5057436;28;20455;-65
2022/12/05 02:06:24;;;;;;;37.20;23.20;;;1.70;99.90;;;;;;5058873;28;20440;-65
2022/12/05 02:08:52;;;;;;;41.10;24.97;;;1.60;99.90;;;;;;5059080;28;20433;-65
2022/12/05 02:11:20;;;;;;;35.93;23.10;;;1.70;99.90;;;;;;5058944;28;20469;-65
2022/12/05 02:13:59;;;;;;;36.43;23.33;;;1.70;99.90;;;;;;5058957;28;20447;-65
2022/12/05 02:16:42;;;;;;;34.83;23.47;;;1.70;99.90;;;;;;5058714;28;20767;-65
2022/12/05 02:19:33;;;;;;;32.37;22.17;;;1.70;99.90;;;;;;5058639;28;20509;-65
2022/12/05 02:22:27;;;;;;;35.13;22.90;;;1.70;99.90;;;;;;5058811;28;20765;-65
2022/12/05 02:25:18;;;;;;;40.77;23.47;;;1.70;99.90;;;;;;5048552;28;20583;-65
2022/12/05 02:28:14;;;;;;;37.17;23.90;;;1.70;99.90;;;;;;5057855;28;20458;-65
2022/12/05 02:30:46;;;;;;;41.37;23.00;;;1.70;99.90;;;;;;5057507;28;20462;-65
2022/12/05 02:33:21;;;;;;;36.63;22.87;;;1.70;99.90;;;;;;5058712;28;20429;-65
2022/12/05 02:35:54;;;;;;;38.07;23.97;;;1.70;99.90;;;;;;5058173;28;20454;-65
2022/12/05 02:38:28;;;;;;;41.67;23.97;;;1.70;99.90;;;;;;5058541;28;20490;-65
2022/12/05 02:41:02;;;;;;;37.53;24.33;;;1.70;99.90;;;;;;5058567;28;20469;-65
2022/12/05 02:43:32;;;;;;;33.53;21.83;;;1.70;99.90;;;;;;5058398;28;20473;-65
2022/12/05 02:46:08;;;;;;;35.93;22.27;;;1.70;99.90;;;;;;5058063;28;20762;-65
2022/12/05 02:48:39;;;;;;;41.33;23.33;;;1.70;99.90;;;;;;5058030;28;20436;-65
2022/12/05 02:51:09;;;;;;;39.73;22.30;;;1.70;99.90;;;;;;5058287;28;20436;-65
2022/12/05 02:53:38;;;;;;;32.33;19.87;;;1.70;99.90;;;;;;5057828;28;20755;-66
2022/12/05 02:56:07;;;;;;;30.80;21.70;;;1.80;99.90;;;;;;5057951;28;20458;-66
2022/12/05 02:58:39;;;;;;;31.60;21.80;;;1.80;99.90;;;;;;5057661;28;20472;-66
2022/12/05 03:01:08;;;;;;;31.70;21.60;;;1.70;99.90;;;;;;5058095;28;20463;-65
2022/12/05 03:03:35;;;;;;;34.53;20.83;;;1.80;99.90;;;;;;5057566;28;20458;-66
2022/12/05 03:06:08;;;;;;;33.23;20.63;;;1.80;99.90;;;;;;5057644;28;20469;-66
2022/12/05 03:08:40;;;;;;;32.47;20.63;;;1.70;99.90;;;;;;5057867;28;20491;-66
2022/12/05 03:11:07;;;;;;;33.10;23.33;;;1.80;99.90;;;;;;5057879;28;20443;-66
2022/12/05 03:13:41;;;;;;;32.50;22.83;;;1.80;99.90;;;;;;5057752;28;20462;-65
2022/12/05 03:16:14;;;;;;;32.83;21.70;;;1.80;99.90;;;;;;5057351;28;20895;-65
2022/12/05 03:18:47;;;;;;;32.57;22.10;;;1.80;99.90;;;;;;5057884;28;20487;-66
2022/12/05 03:21:25;;;;;;;33.33;19.60;;;1.80;99.90;;;;;;5057750;28;20465;-66
2022/12/05 03:23:57;;;;;;;33.93;21.80;;;1.80;99.90;;;;;;5056771;28;20754;-66
2022/12/05 03:26:36;;;;;;;35.20;22.90;;;1.80;99.90;;;;;;5057420;28;20472;-65
2022/12/05 03:29:19;;;;;;;43.10;22.83;;;1.80;99.90;;;;;;5057798;28;20873;-66
2022/12/05 03:31:55;;;;;;;37.07;23.63;;;1.70;99.90;;;;;;5057339;28;20462;-66
2022/12/05 03:34:35;;;;;;;35.00;22.60;;;1.80;99.90;;;;;;5057852;28;20470;-66
2022/12/05 03:37:07;;;;;;;38.67;21.30;;;1.80;99.90;;;;;;5057569;28;20465;-66
2022/12/05 03:39:39;;;;;;;35.37;23.33;;;1.70;99.90;;;;;;5057344;28;20498;-66
2022/12/05 03:42:11;;;;;;;38.03;22.33;;;1.70;99.90;;;;;;5056805;28;20470;-66
2022/12/05 03:44:47;;;;;;;34.70;22.60;;;1.80;99.90;;;;;;5057467;28;20463;-66
2022/12/05 03:47:22;;;;;;;36.00;22.63;;;1.80;99.90;;;;;;5056630;28;20458;-66
2022/12/05 03:49:55;;;;;;;31.97;21.73;;;1.80;99.90;;;;;;5057000;28;20462;-66
2022/12/05 03:52:28;;;;;;;35.37;21.20;;;1.80;99.90;;;;;;5044492;28;20911;-67
2022/12/05 03:54:58;;;;;;;30.00;20.93;;;1.80;99.90;;;;;;5039660;28;20464;-67
2022/12/05 03:57:29;;;;;;;32.07;21.50;;;1.80;99.90;;;;;;5037824;28;20471;-68
2022/12/05 03:59:59;;;;;;;34.00;21.20;;;1.70;99.90;;;;;;5039325;28;20490;-67
2022/12/05 04:02:33;;;;;;;32.80;20.70;;;1.70;99.90;;;;;;5036985;28;20475;-67
2022/12/05 04:05:06;;;;;;;33.27;21.30;;;1.70;99.90;;;;;;5037508;28;20464;-66
2022/12/05 04:07:38;;;;;;;27.77;19.30;;;1.70;99.90;;;;;;5037162;28;20459;-66
2022/12/05 04:10:08;;;;;;;32.57;20.57;;;1.60;99.90;;;;;;5037528;28;20459;-65
2022/12/05 04:12:37;;;;;;;32.97;20.10;;;1.60;99.90;;;;;;5036415;28;20474;-65
2022/12/05 04:15:10;;;;;;;31.37;20.80;;;1.60;99.90;;;;;;5036351;28;20471;-64
2022/12/05 04:17:45;;;;;;;30.10;19.83;;;1.50;99.90;;;;;;5035199;28;20464;-64
2022/12/05 04:23:00;;;;;;;28.30;19.60;;;1.50;99.90;;;;;;5035488;28;20438;-63
2022/12/05 04:25:34;;;;;;;31.47;18.27;;;1.50;99.90;;;;;;5051043;28;20494;-63
2022/12/05 04:28:17;;;;;;;26.97;17.23;;;1.40;99.90;;;;;;5059202;28;20459;-63
2022/12/05 04:30:56;;;;;;;28.60;17.77;;;1.40;99.90;;;;;;5060545;28;20764;-64
2022/12/05 04:33:39;;;;;;;24.00;17.43;;;1.40;99.90;;;;;;5061260;28;20458;-64
2022/12/05 04:36:13;;;;;;;26.17;17.17;;;1.40;99.90;;;;;;5060445;28;20469;-62
2022/12/05 04:38:45;;;;;;;24.27;17.87;;;1.40;99.90;;;;;;5060744;28;20494;-62
2022/12/05 04:41:16;;;;;;;23.00;16.70;;;1.40;99.90;;;;;;5060787;28;20466;-63
2022/12/05 04:43:45;;;;;;;23.80;18.17;;;1.40;99.90;;;;;;5060104;28;20468;-63
2022/12/05 04:46:14;;;;;;;21.43;16.73;;;1.40;99.90;;;;;;5060386;28;20512;-63
2022/12/05 04:48:48;;;;;;;22.63;16.50;;;1.40;99.90;;;;;;5060536;28;20462;-63
2022/12/05 04:51:20;;;;;;;26.53;16.80;;;1.40;99.90;;;;;;5060663;28;20443;-63
2022/12/05 04:53:50;;;;;;;23.03;16.60;;;1.40;99.90;;;;;;5060013;28;20454;-63
2022/12/05 04:56:20;;;;;;;16.87;14.27;;;1.40;99.90;;;;;;5060228;28;20450;-64
2022/12/05 04:58:47;;;;;;;19.30;14.30;;;1.40;99.90;;;;;;5059878;28;20489;-64
2022/12/05 05:01:18;;;;;;;21.80;16.23;;;1.30;99.90;;;;;;5060537;28;20441;-64
2022/12/05 05:03:51;;;;;;;20.33;14.63;;;1.30;99.90;;;;;;5060081;28;20487;-63
2022/12/05 05:06:18;;;;;;;19.73;14.37;;;1.40;99.90;;;;;;5060718;28;20463;-63
2022/12/05 05:08:50;;;;;;;22.90;16.20;;;1.30;99.90;;;;;;5059997;28;20480;-63
2022/12/05 05:11:19;;;;;;;19.53;14.63;;;1.30;99.90;;;;;;5060171;28;20433;-63
2022/12/05 05:13:47;;;;;;;18.10;14.07;;;1.30;99.90;;;;;;5059683;28;20517;-63
2022/12/05 05:16:18;;;;;;;21.77;15.43;;;1.40;99.90;;;;;;5060174;28;20466;-63
2022/12/05 05:18:47;;;;;;;23.43;16.33;;;1.40;99.90;;;;;;5060329;28;20980;-63
2022/12/05 05:21:20;;;;;;;20.10;15.83;;;1.30;99.90;;;;;;5060163;28;20466;-63
2022/12/05 05:23:48;;;;;;;19.67;15.80;;;1.40;99.90;;;;;;5059196;28;20501;-63
2022/12/05 05:26:15;;;;;;;22.53;16.20;;;1.40;99.90;;;;;;5059817;28;20474;-64
2022/12/05 05:28:42;;;;;;;22.67;16.30;;;1.30;99.90;;;;;;5059694;28;20462;-65
2022/12/05 05:31:09;;;;;;;18.13;14.93;;;1.40;99.90;;;;;;5058922;28;20466;-65
2022/12/05 05:33:37;;;;;;;17.63;14.80;;;1.40;99.90;;;;;;5059049;28;20466;-66
2022/12/05 05:36:08;;;;;;;20.50;14.33;;;1.40;99.90;;;;;;5059787;28;20767;-66
2022/12/05 05:38:38;;;;;;;22.10;15.37;;;1.40;99.90;;;;;;5058942;28;20462;-66
2022/12/05 05:41:06;;;;;;;20.40;15.40;;;1.40;99.90;;;;;;5059933;28;20761;-66
2022/12/05 05:43:33;;;;;;;19.47;14.63;;;1.40;99.90;;;;;;5059213;28;20464;-66
2022/12/05 05:46:03;;;;;;;18.43;13.50;;;1.40;99.90;;;;;;5059531;28;20473;-66
2022/12/05 05:48:30;;;;;;;17.33;14.07;;;1.40;99.90;;;;;;5059587;28;20941;-66
2022/12/05 05:50:59;;;;;;;19.67;14.63;;;1.40;99.90;;;;;;5059412;28;20459;-66
2022/12/05 05:53:27;;;;;;;23.83;14.83;;;1.40;99.90;;;;;;5059368;28;20521;-66
2022/12/05 05:55:55;;;;;;;20.40;14.70;;;1.40;99.90;;;;;;5058938;28;20466;-66
2022/12/05 05:58:22;;;;;;;19.77;15.10;;;1.40;99.90;;;;;;5058861;28;20896;-66
2022/12/05 06:00:49;;;;;;;19.30;14.80;;;1.40;99.90;;;;;;5059311;28;20500;-66
2022/12/05 06:03:16;;;;;;;18.43;15.17;;;1.40;99.90;;;;;;5059253;28;20569;-65
2022/12/05 06:05:43;;;;;;;20.60;15.50;;;1.40;99.90;;;;;;5058864;28;20760;-65
2022/12/05 06:08:11;;;;;;;20.33;14.23;;;1.40;99.90;;;;;;5058567;28;20470;-65
2022/12/05 06:10:40;;;;;;;17.03;13.70;;;1.40;99.90;;;;;;5059241;28;20465;-65
2022/12/05 06:13:07;;;;;;;18.77;14.80;;;1.40;99.90;;;;;;5058923;28;20463;-65
2022/12/05 06:15:34;;;;;;;22.73;16.17;;;1.40;99.90;;;;;;5058738;28;20462;-65
2022/12/05 06:18:01;;;;;;;23.20;16.83;;;1.40;99.90;;;;;;5058351;28;20462;-65
2022/12/05 06:20:28;;;;;;;21.77;16.23;;;1.40;99.90;;;;;;5058711;28;20469;-64
2022/12/05 06:22:55;;;;;;;22.37;15.57;;;1.50;99.90;;;;;;5058853;28;20465;-64
2022/12/05 06:25:22;;;;;;;20.10;13.90;;;1.50;99.90;;;;;;5058167;28;20962;-64
2022/12/05 06:27:51;;;;;;;32.07;25.47;;;1.50;99.90;;;;;;5058398;28;20482;-63
2022/12/05 06:30:18;;;;;;;24.37;18.93;;;1.40;99.90;;;;;;5057941;28;20758;-63
2022/12/05 06:32:45;;;;;;;20.10;16.47;;;1.40;99.90;;;;;;5058481;28;20867;-63
2022/12/05 06:35:15;;;;;;;18.50;15.80;;;1.40;99.90;;;;;;5059035;28;20708;-63
2022/12/05 06:37:42;;;;;;;20.27;14.77;;;1.40;99.90;;;;;;5058300;28;20466;-62
2022/12/05 06:40:10;;;;;;;18.20;14.40;;;1.40;99.90;;;;;;5058310;28;20494;-62
2022/12/05 06:42:37;;;;;;;19.90;15.17;;;1.40;99.90;;;;;;5058222;28;20467;-62
2022/12/05 06:45:07;;;;;;;15.60;12.20;;;1.40;99.90;;;;;;5058796;28;20569;-61
2022/12/05 06:47:34;;;;;;;17.87;12.60;;;1.40;99.90;;;;;;5057307;28;20466;-61
2022/12/05 06:50:01;;;;;;;17.00;13.50;;;1.40;99.90;;;;;;5057181;28;20464;-61
2022/12/05 06:52:28;;;;;;;17.13;13.50;;;1.40;99.90;;;;;;5056752;28;20462;-61
2022/12/05 06:54:56;;;;;;;17.77;14.13;;;1.30;99.90;;;;;;5057730;28;20462;-61
2022/12/05 06:57:23;;;;;;;16.67;12.63;;;1.40;99.90;;;;;;5058093;28;20458;-61
2022/12/05 06:59:50;;;;;;;18.50;13.37;;;1.30;99.90;;;;;;5057508;28;20501;-61
2022/12/05 07:02:17;;;;;;;14.53;12.43;;;1.30;99.90;;;;;;5057785;28;20462;-61
2022/12/05 07:04:44;;;;;;;18.37;13.63;;;1.30;99.90;;;;;;5058548;28;20445;-61
2022/12/05 07:07:12;;;;;;;16.40;13.87;;;1.30;99.90;;;;;;5058027;28;20466;-61
2022/12/05 07:09:52;;;;;;;17.30;12.47;;;1.30;99.90;;;;;;5057585;28;20461;-61
2022/12/05 07:12:20;;;;;;;16.77;13.50;;;1.30;99.90;;;;;;5057815;28;20826;-61
2022/12/05 07:14:47;;;;;;;14.93;12.70;;;1.40;99.90;;;;;;5057937;28;20466;-61
2022/12/05 07:17:14;;;;;;;15.63;12.33;;;1.40;99.90;;;;;;5057471;28;20469;-61
2022/12/05 07:19:43;;;;;;;13.90;12.03;;;1.40;99.90;;;;;;5057466;28;20946;-62
2022/12/05 07:22:10;;;;;;;14.70;13.10;;;1.40;99.90;;;;;;5057307;28;20458;-61
2022/12/05 07:24:37;;;;;;;14.07;11.80;;;1.40;99.90;;;;;;5057088;28;20490;-61
2022/12/05 07:27:05;;;;;;;14.00;11.50;;;1.40;99.90;;;;;;5057620;28;20466;-62
2022/12/05 07:29:32;;;;;;;14.40;11.10;;;1.40;99.90;;;;;;5057271;28;20901;-61
2022/12/05 07:31:59;;;;;;;15.83;11.90;;;1.40;99.90;;;;;;5056837;28;20462;-62
2022/12/05 07:34:26;;;;;;;14.03;11.20;;;1.40;99.90;;;;;;5057480;28;20875;-61
2022/12/05 07:36:55;;;;;;;15.50;12.70;;;1.30;99.90;;;;;;5057751;28;20462;-61
2022/12/05 07:39:22;;;;;;;14.20;12.07;;;1.40;99.90;;;;;;5057353;28;20883;-61
2022/12/05 07:41:49;;;;;;;14.23;11.57;;;1.40;99.90;;;;;;5056979;28;20553;-62
2022/12/05 07:44:16;;;;;;;12.67;11.37;;;1.40;99.90;;;;;;5057202;28;20470;-61
2022/12/05 07:46:43;;;;;;;12.73;11.40;;;1.40;99.90;;;;;;5057690;28;20466;-61
2022/12/05 07:49:10;;;;;;;16.40;12.10;;;1.40;99.90;;;;;;5057405;28;20766;-61
2022/12/05 07:51:38;;;;;;;13.97;11.20;;;1.40;99.90;;;;;;5057398;28;20766;-61
2022/12/05 07:54:06;;;;;;;12.50;10.50;;;1.40;99.90;;;;;;5057317;28;20473;-60
2022/12/05 07:56:33;;;;;;;13.07;10.90;;;1.40;99.90;;;;;;5055865;28;20533;-62
2022/12/05 07:59:01;;;;;;;14.60;11.20;;;1.30;99.90;;;;;;5056767;28;20433;-61
2022/12/05 08:01:29;;;;;;;14.20;9.90;;;1.40;99.90;;;;;;5056720;28;20490;-62
2022/12/05 08:03:58;;;;;;;12.87;10.80;;;1.40;99.90;;;;;;5061218;28;20929;-61
2022/12/05 08:06:27;;;;;;;12.13;10.80;;;1.40;99.90;;;;;;5060305;28;20462;-61
2022/12/05 08:08:55;;;;;;;11.80;9.73;;;1.40;99.90;;;;;;5060503;28;20465;-61
2022/12/05 08:11:26;;;;;;;11.70;9.87;;;1.40;99.90;;;;;;5061599;28;20432;-61
2022/12/05 08:13:54;;;;;;;11.77;10.03;;;1.40;99.90;;;;;;5060185;28;20891;-61
2022/12/05 08:16:23;;;;;;;10.87;8.93;;;1.40;99.90;;;;;;5060472;28;20462;-61
2022/12/05 08:18:54;;;;;;;11.47;9.40;;;1.40;99.90;;;;;;5061104;28;20459;-61
2022/12/05 08:21:23;;;;;;;11.47;10.00;;;1.40;99.90;;;;;;5061002;28;20493;-61
2022/12/05 08:23:52;;;;;;;12.43;9.83;;;1.50;99.90;;;;;;5060708;28;20466;-61
2022/12/05 08:26:21;;;;;;;11.83;10.50;;;1.40;99.90;;;;;;5060747;28;20469;-61
2022/12/05 08:28:52;;;;;;;10.50;9.40;;;1.40;99.90;;;;;;5060767;28;20462;-60
2022/12/05 08:31:22;;;;;;;11.67;9.47;;;1.50;99.90;;;;;;5060682;28;20461;-60
2022/12/05 08:33:50;;;;;;;13.40;10.37;;;1.40;99.90;;;;;;5060721;28;20473;-60
2022/12/05 08:36:18;;;;;;;11.10;9.77;;;1.50;99.90;;;;;;5059767;28;20449;-61
2022/12/05 08:38:46;;;;;;;12.17;10.87;;;1.50;99.90;;;;;;5060276;28;20462;-60
2022/12/05 08:41:15;;;;;;;12.10;10.67;;;1.50;99.90;;;;;;5060723;28;20751;-61
2022/12/05 08:43:43;;;;;;;10.20;9.20;;;1.50;99.90;;;;;;5059525;28;20569;-59
2022/12/05 08:46:12;;;;;;;12.13;8.90;;;1.50;99.90;;;;;;5059968;28;20485;-61
2022/12/05 08:48:39;;;;;;;11.03;9.00;;;1.50;99.90;;;;;;5060232;28;20444;-61
2022/12/05 08:51:08;;;;;;;10.43;9.20;;;1.60;99.90;;;;;;5060601;28;20462;-61
2022/12/05 08:53:36;;;;;;;10.87;9.10;;;1.50;99.90;;;;;;5060224;28;20437;-61
2022/12/05 08:56:04;;;;;;;9.70;8.40;;;1.50;99.90;;;;;;5061138;28;20714;-61
2022/12/05 08:58:31;;;;;;;9.43;8.43;;;1.50;99.90;;;;;;5060978;28;20473;-61
2022/12/05 09:01:05;;;;;;;9.60;8.70;;;1.60;99.90;;;;;;5060953;28;20493;-61
2022/12/05 09:03:33;;;;;;;11.67;9.37;;;1.50;99.90;;;;;;5060942;28;20455;-61
2022/12/05 09:06:08;;;;;;;10.27;9.27;;;1.60;99.90;;;;;;5060910;28;20458;-61
2022/12/05 09:08:35;;;;;;;9.53;8.43;;;1.60;99.90;;;;;;5060423;28;20468;-61
2022/12/05 09:11:06;;;;;;;11.17;8.50;;;1.60;99.90;;;;;;5060973;28;20432;-61
2022/12/05 09:13:33;;;;;;;11.13;9.13;;;1.60;99.90;;;;;;5051879;28;20454;-61
2022/12/05 09:16:05;;;;;;;10.67;9.67;;;1.70;99.90;;;;;;5040112;28;20875;-61
2022/12/05 09:18:34;;;;;;;9.37;8.37;;;1.70;99.90;;;;;;5040156;28;20471;-59
2022/12/05 09:21:06;;;;;;;11.20;8.80;;;1.70;99.90;;;;;;5040237;28;20776;-61
2022/12/05 09:23:33;;;;;;;10.27;9.17;;;1.70;99.90;;;;;;5039570;28;20467;-61
2022/12/05 09:26:01;;;;;;;11.57;9.03;;;1.70;99.90;;;;;;5039806;28;20466;-61
2022/12/05 09:28:28;;;;;;;10.97;9.77;;;1.70;99.90;;;;;;5040284;28;20491;-62
2022/12/05 09:30:57;;;;;;;11.80;9.50;;;1.70;99.90;;;;;;5039693;28;20767;-62
2022/12/05 09:33:24;;;;;;;9.13;8.23;;;1.70;99.90;;;;;;5040204;28;20528;-62
2022/12/05 09:35:53;;;;;;;11.43;9.80;;;1.70;99.90;;;;;;5039885;28;20470;-62
2022/12/05 09:38:20;;;;;;;11.13;9.03;;;1.70;99.90;;;;;;5039544;28;20471;-62
2022/12/05 09:40:52;;;;;;;12.60;9.67;;;1.70;99.90;;;;;;5039491;28;20491;-62
2022/12/05 09:43:25;;;;;;;11.90;9.70;;;1.80;99.90;;;;;;5039674;28;20896;-62
2022/12/05 09:45:58;;;;;;;11.37;9.53;;;1.80;99.90;;;;;;5039131;28;20466;-62
2022/12/05 09:48:25;;;;;;;10.50;9.40;;;1.80;99.90;;;;;;5039411;28;20570;-63
2022/12/05 09:50:57;;;;;;;11.30;10.10;;;1.80;99.90;;;;;;5039718;28;20855;-62
2022/12/05 09:53:29;;;;;;;10.53;9.37;;;1.90;99.90;;;;;;5039613;28;20463;-62
2022/12/05 09:56:04;;;;;;;12.53;10.67;;;1.90;99.90;;;;;;5039299;28;20496;-62
2022/12/05 09:58:41;;;;;;;9.77;8.77;;;1.90;99.90;;;;;;5039574;28;20459;-62
2022/12/05 10:01:26;;;;;;;9.33;8.33;;;1.90;99.90;;;;;;5039446;28;20534;-62
2022/12/05 10:04:11;;;;;;;9.87;8.50;;;1.90;99.90;;;;;;5039724;28;20473;-63
2022/12/05 10:06:45;;;;;;;9.87;8.87;;;1.90;99.90;;;;;;5040389;28;20463;-63
2022/12/05 10:09:27;;;;;;;9.90;8.73;;;2.00;99.90;;;;;;5041286;28;20914;-63
2022/12/05 10:12:01;;;;;;;9.67;8.70;;;2.10;99.90;;;;;;5040611;28;20497;-64
2022/12/05 10:14:39;;;;;;;10.80;8.13;;;2.00;99.90;;;;;;5040070;28;20467;-63
2022/12/05 10:17:16;;;;;;;11.13;10.03;;;2.10;99.90;;;;;;5040785;28;20463;-63
2022/12/05 10:19:47;;;;;;;12.27;9.10;;;2.10;99.90;;;;;;5040489;28;20516;-64
2022/12/05 10:22:19;;;;;;;10.73;9.50;;;2.10;99.90;;;;;;5039885;28;20913;-63
2022/12/05 10:24:50;;;;;;;10.30;8.90;;;2.10;99.90;;;;;;5049319;28;20486;-63
2022/12/05 10:27:21;;;;;;;13.37;10.53;;;2.10;99.90;;;;;;5060097;28;20871;-63
2022/12/05 10:29:56;;;;;;;11.60;9.67;;;2.10;99.90;;;;;;5059799;28;20462;-63
2022/12/05 10:32:28;;;;;;;12.57;10.20;;;2.20;99.90;;;;;;5060289;28;20443;-63
2022/12/05 10:35:01;;;;;;;10.67;9.23;;;2.20;99.90;;;;;;5060341;28;20437;-63
2022/12/05 10:37:30;;;;;;;9.93;8.93;;;2.20;99.90;;;;;;5061062;28;20885;-62
2022/12/05 10:39:58;;;;;;;9.90;9.00;;;2.10;99.90;;;;;;5060534;28;20520;-62
2022/12/05 10:42:29;;;;;;;13.33;9.40;;;2.10;99.90;;;;;;5060243;28;20969;-62
2022/12/05 10:44:59;;;;;;;10.80;9.70;;;2.10;99.90;;;;;;5059983;28;20481;-62
2022/12/05 10:47:27;;;;;;;11.70;9.67;;;2.10;99.90;;;;;;5059875;28;20795;-62
2022/12/05 10:49:56;;;;;;;10.73;9.70;;;2.20;99.90;;;;;;5058256;28;20470;-62
2022/12/05 10:52:23;;;;;;;13.80;8.93;;;2.30;99.90;;;;;;5059182;28;20437;-61
2022/12/05 10:54:55;;;;;;;13.07;10.80;;;2.30;99.90;;;;;;5060044;28;20462;-62
2022/12/05 10:57:25;;;;;;;10.93;9.83;;;2.30;99.90;;;;;;5059194;28;20466;-61
2022/12/05 10:59:53;;;;;;;13.93;10.87;;;2.20;99.90;;;;;;5059414;28;20448;-61
2022/12/05 11:02:25;;;;;;;11.40;9.90;;;2.20;99.90;;;;;;5059655;28;20490;-59
2022/12/05 11:04:53;;;;;;;11.70;10.47;;;2.10;99.90;;;;;;5058362;28;20982;-60
2022/12/05 11:07:28;;;;;;;11.97;10.73;;;2.00;99.90;;;;;;5058265;28;20486;-60
2022/12/05 11:09:58;;;;;;;10.83;9.80;;;2.00;99.90;;;;;;5058711;28;20462;-60
2022/12/05 11:12:28;;;;;;;12.60;10.63;;;2.00;99.90;;;;;;5058542;28;20450;-60
2022/12/05 11:15:02;;;;;;;11.23;9.70;;;2.00;99.90;;;;;;5058270;28;20481;-57
2022/12/05 11:17:33;;;;;;;12.43;10.53;;;2.00;99.90;;;;;;5058015;28;20468;-57
2022/12/05 11:20:00;;;;;;;11.20;10.10;;;2.10;99.90;;;;;;5056761;28;20471;-60
2022/12/05 11:22:32;;;;;;;12.30;9.87;;;2.00;99.90;;;;;;5058194;28;20567;-59
2022/12/05 11:25:01;;;;;;;15.50;11.23;;;2.10;99.90;;;;;;5057946;28;20547;-57
2022/12/05 11:27:31;;;;;;;11.40;10.20;;;2.00;99.90;;;;;;5057758;28;20458;-60
2022/12/05 11:30:01;;;;;;;14.40;11.60;;;2.10;99.90;;;;;;5048073;28;20460;-59
2022/12/05 11:32:31;;;;;;;20.00;14.47;;;2.10;99.90;;;;;;5046578;28;20430;-60
2022/12/05 11:35:07;;;;;;;22.13;14.43;;;2.10;99.90;;;;;;5046239;28;20454;-61
2022/12/05 11:37:43;;;;;;;15.80;13.87;;;2.20;99.90;;;;;;5046316;28;20469;-61
2022/12/05 11:40:31;;;;;;;13.50;12.10;;;2.10;99.90;;;;;;5046136;28;20429;-61
2022/12/05 11:43:21;;;;;;;10.97;9.87;;;2.20;99.90;;;;;;5047044;28;20472;-61
2022/12/05 11:45:56;;;;;;;10.73;9.40;;;2.20;99.90;;;;;;5045146;28;20426;-62
2022/12/05 11:48:39;;;;;;;13.30;10.27;;;2.10;99.90;;;;;;5044500;28;20457;-62
2022/12/05 11:51:20;;;;;;;14.40;11.70;;;2.20;99.90;;;;;;5046067;28;20442;-63
2022/12/05 11:54:06;;;;;;;15.67;12.03;;;2.30;99.90;;;;;;5044140;28;20811;-63
2022/12/05 11:56:38;;;;;;;15.47;11.47;;;2.20;99.90;;;;;;5045568;28;20451;-63
2022/12/05 11:59:23;;;;;;;14.10;12.60;;;2.30;99.90;;;;;;5041044;28;20463;-62
2022/12/05 12:02:01;;;;;;;14.87;12.47;;;2.30;99.90;;;;;;5044333;28;20490;-63
2022/12/05 12:04:46;;;;;;;15.27;12.50;;;2.30;99.90;;;;;;5046432;28;20475;-63
2022/12/05 12:07:25;;;;;;;17.70;13.90;;;2.30;99.90;;;;;;5044614;28;20463;-64
2022/12/05 12:10:06;;;;;;;15.60;13.20;;;2.30;99.90;;;;;;5044713;28;20459;-63
2022/12/05 12:12:47;;;;;;;17.33;14.47;;;2.30;99.90;;;;;;5047050;28;20454;-63
2022/12/05 12:15:30;;;;;;;15.10;13.37;;;2.30;99.90;;;;;;5045297;28;20459;-64
2022/12/05 12:18:08;;;;;;;17.03;14.97;;;2.30;99.90;;;;;;5045571;28;20455;-65
2022/12/05 12:20:51;;;;;;;16.90;13.10;;;2.30;99.90;;;;;;5045837;28;20469;-65
2022/12/05 12:23:32;;;;;;;16.23;13.03;;;2.30;99.90;;;;;;5055587;28;20466;-64
2022/12/05 12:26:11;;;;;;;18.60;15.80;;;2.30;99.90;;;;;;5035832;28;20883;-64
2022/12/05 12:28:46;;;;;;;14.43;13.00;;;2.30;99.90;;;;;;5035775;28;20444;-65
2022/12/05 12:31:38;;;;;;;14.50;11.93;;;2.20;99.90;;;;;;5033911;28;20466;-64
2022/12/05 12:34:26;;;;;;;14.43;12.90;;;2.20;99.90;;;;;;5036077;28;20478;-64
2022/12/05 12:36:59;;;;;;;14.07;12.67;;;2.10;99.90;;;;;;5036694;28;20433;-65
2022/12/05 12:39:38;;;;;;;15.50;13.90;;;2.20;99.90;;;;;;5036375;28;20467;-65
2022/12/05 12:42:23;;;;;;;15.03;13.17;;;2.10;99.90;;;;;;5036358;28;20497;-65
2022/12/05 12:45:10;;;;;;;16.53;14.80;;;2.10;99.90;;;;;;5036620;28;20473;-65
2022/12/05 12:47:49;;;;;;;13.40;11.97;;;2.20;99.90;;;;;;5037447;28;20751;-65
2022/12/05 12:50:21;;;;;;;16.87;14.20;;;2.10;99.90;;;;;;5040746;28;20867;-65
2022/12/05 12:53:11;;;;;;;17.33;14.83;;;2.10;99.90;;;;;;5040374;28;20763;-65
2022/12/05 12:55:44;;;;;;;14.30;12.80;;;2.10;99.90;;;;;;5039664;28;20462;-66
2022/12/05 12:58:30;;;;;;;15.90;12.60;;;2.10;99.90;;;;;;5040010;28;20470;-66
2022/12/05 13:01:08;;;;;;;13.07;11.67;;;2.10;99.90;;;;;;5040191;28;20463;-66
2022/12/05 13:03:41;;;;;;;15.27;13.20;;;2.20;99.90;;;;;;5040303;28;20875;-66